sensor_id;sensor_type;location;lat;lon;timestamp;temperature;humidity
70986;DHT22;58645;43.068;25.610;2022-11-06T00:01:25;18.20;58.50
70986;DHT22;58645;43.068;25.610;2022-11-06T00:03:52;18.10;59.10
70986;DHT22;58645;43.068;25.610;2022-11-06T00:06:18;18.10;59.50
70986;DHT22;58645;43.068;25.610;2022-11-06T00:09:06;18.10;59.50
70986;DHT22;58645;43.068;25.610;2022-11-06T00:11:32;18.00;59.90
70986;DHT22;58645;43.068;25.610;2022-11-06T00:13:59;18.00;60.40
70986;DHT22;58645;43.068;25.610;2022-11-06T00:16:25;18.00;60.50
70986;DHT22;58645;43.068;25.610;2022-11-06T00:18:51;17.90;60.70
70986;DHT22;58645;43.068;25.610;2022-11-06T00:21:19;17.90;60.80
70986;DHT22;58645;43.068;25.610;2022-11-06T00:23:46;17.90;61.20
70986;DHT22;58645;43.068;25.610;2022-11-06T00:26:22;17.90;61.30
70986;DHT22;58645;43.068;25.610;2022-11-06T00:28:48;17.90;61.40
70986;DHT22;58645;43.068;25.610;2022-11-06T00:31:20;17.90;61.40
70986;DHT22;58645;43.068;25.610;2022-11-06T00:33:47;17.90;61.40
70986;DHT22;58645;43.068;25.610;2022-11-06T00:36:15;17.90;61.40
70986;DHT22;58645;43.068;25.610;2022-11-06T00:38:41;17.90;61.60
70986;DHT22;58645;43.068;25.610;2022-11-06T00:41:09;17.90;62.00
70986;DHT22;58645;43.068;25.610;2022-11-06T00:43:36;17.80;62.00
70986;DHT22;58645;43.068;25.610;2022-11-06T00:46:02;17.80;62.10
70986;DHT22;58645;43.068;25.610;2022-11-06T00:48:28;17.70;62.50
70986;DHT22;58645;43.068;25.610;2022-11-06T00:50:53;17.70;63.00
70986;DHT22;58645;43.068;25.610;2022-11-06T00:53:19;17.70;63.30
70986;DHT22;58645;43.068;25.610;2022-11-06T00:55:45;17.70;63.60
70986;DHT22;58645;43.068;25.610;2022-11-06T00:58:11;17.60;63.70
70986;DHT22;58645;43.068;25.610;2022-11-06T01:00:37;17.60;64.20
70986;DHT22;58645;43.068;25.610;2022-11-06T01:03:02;17.60;64.40
70986;DHT22;58645;43.068;25.610;2022-11-06T01:05:28;17.50;64.70
70986;DHT22;58645;43.068;25.610;2022-11-06T01:07:54;17.50;64.80
70986;DHT22;58645;43.068;25.610;2022-11-06T01:10:19;17.60;65.00
70986;DHT22;58645;43.068;25.610;2022-11-06T01:12:45;17.60;65.20
70986;DHT22;58645;43.068;25.610;2022-11-06T01:15:11;17.60;65.10
70986;DHT22;58645;43.068;25.610;2022-11-06T01:17:37;17.60;65.20
70986;DHT22;58645;43.068;25.610;2022-11-06T01:20:04;17.70;65.20
70986;DHT22;58645;43.068;25.610;2022-11-06T01:22:29;17.70;64.90
70986;DHT22;58645;43.068;25.610;2022-11-06T01:24:55;17.70;65.00
70986;DHT22;58645;43.068;25.610;2022-11-06T01:27:21;17.80;64.80
70986;DHT22;58645;43.068;25.610;2022-11-06T01:29:46;17.80;64.70
70986;DHT22;58645;43.068;25.610;2022-11-06T01:32:12;17.80;64.80
70986;DHT22;58645;43.068;25.610;2022-11-06T01:34:38;17.80;64.70
70986;DHT22;58645;43.068;25.610;2022-11-06T01:37:04;17.80;64.70
70986;DHT22;58645;43.068;25.610;2022-11-06T01:39:30;17.80;64.40
70986;DHT22;58645;43.068;25.610;2022-11-06T01:41:55;17.70;64.10
70986;DHT22;58645;43.068;25.610;2022-11-06T01:47:19;17.60;63.80
70986;DHT22;58645;43.068;25.610;2022-11-06T01:49:45;17.60;63.80
70986;DHT22;58645;43.068;25.610;2022-11-06T01:52:12;17.50;63.80
70986;DHT22;58645;43.068;25.610;2022-11-06T01:54:40;17.50;63.90
70986;DHT22;58645;43.068;25.610;2022-11-06T01:57:08;17.40;63.80
70986;DHT22;58645;43.068;25.610;2022-11-06T01:59:38;17.30;63.80
70986;DHT22;58645;43.068;25.610;2022-11-06T02:02:04;17.30;63.80
70986;DHT22;58645;43.068;25.610;2022-11-06T02:04:36;17.20;63.90
70986;DHT22;58645;43.068;25.610;2022-11-06T02:07:02;17.10;64.20
70986;DHT22;58645;43.068;25.610;2022-11-06T02:09:29;17.00;64.50
70986;DHT22;58645;43.068;25.610;2022-11-06T02:14:59;16.80;64.80
70986;DHT22;58645;43.068;25.610;2022-11-06T02:28:57;16.40;66.40
70986;DHT22;58645;43.068;25.610;2022-11-06T02:31:26;16.40;66.60
70986;DHT22;58645;43.068;25.610;2022-11-06T02:33:59;16.30;66.80
70986;DHT22;58645;43.068;25.610;2022-11-06T02:36:30;16.30;67.20
70986;DHT22;58645;43.068;25.610;2022-11-06T02:39:02;16.20;67.50
70986;DHT22;58645;43.068;25.610;2022-11-06T02:41:38;16.20;67.50
70986;DHT22;58645;43.068;25.610;2022-11-06T02:44:14;16.20;67.60
70986;DHT22;58645;43.068;25.610;2022-11-06T02:46:56;16.10;67.90
70986;DHT22;58645;43.068;25.610;2022-11-06T02:52:12;16.10;68.10
70986;DHT22;58645;43.068;25.610;2022-11-06T02:54:43;16.10;68.20
70986;DHT22;58645;43.068;25.610;2022-11-06T02:57:12;16.00;68.20
70986;DHT22;58645;43.068;25.610;2022-11-06T02:59:50;16.00;68.50
70986;DHT22;58645;43.068;25.610;2022-11-06T03:02:32;16.00;68.50
70986;DHT22;58645;43.068;25.610;2022-11-06T03:05:08;16.00;68.70
70986;DHT22;58645;43.068;25.610;2022-11-06T03:07:52;15.90;68.90
70986;DHT22;58645;43.068;25.610;2022-11-06T03:10:19;15.80;69.20
70986;DHT22;58645;43.068;25.610;2022-11-06T03:12:50;15.80;69.30
70986;DHT22;58645;43.068;25.610;2022-11-06T03:18:13;15.70;69.40
70986;DHT22;58645;43.068;25.610;2022-11-06T03:23:31;15.70;70.10
70986;DHT22;58645;43.068;25.610;2022-11-06T03:26:00;15.70;70.10
70986;DHT22;58645;43.068;25.610;2022-11-06T03:31:33;15.70;70.50
70986;DHT22;58645;43.068;25.610;2022-11-06T03:34:05;15.70;70.30
70986;DHT22;58645;43.068;25.610;2022-11-06T03:36:34;15.70;71.00
70986;DHT22;58645;43.068;25.610;2022-11-06T03:39:06;15.70;71.30
70986;DHT22;58645;43.068;25.610;2022-11-06T03:41:45;15.70;71.40
70986;DHT22;58645;43.068;25.610;2022-11-06T03:44:17;15.70;71.90
70986;DHT22;58645;43.068;25.610;2022-11-06T03:46:49;15.70;72.00
70986;DHT22;58645;43.068;25.610;2022-11-06T03:49:21;15.70;72.00
70986;DHT22;58645;43.068;25.610;2022-11-06T03:51:57;15.60;72.30
70986;DHT22;58645;43.068;25.610;2022-11-06T03:54:26;15.60;73.10
70986;DHT22;58645;43.068;25.610;2022-11-06T03:57:04;15.60;73.30
70986;DHT22;58645;43.068;25.610;2022-11-06T03:59:37;15.60;72.90
70986;DHT22;58645;43.068;25.610;2022-11-06T04:02:04;15.60;73.30
70986;DHT22;58645;43.068;25.610;2022-11-06T04:04:37;15.60;73.60
70986;DHT22;58645;43.068;25.610;2022-11-06T04:07:12;15.60;74.10
70986;DHT22;58645;43.068;25.610;2022-11-06T04:09:41;15.60;73.90
70986;DHT22;58645;43.068;25.610;2022-11-06T04:12:30;15.60;74.00
70986;DHT22;58645;43.068;25.610;2022-11-06T04:15:31;15.60;74.20
70986;DHT22;58645;43.068;25.610;2022-11-06T04:17:58;15.60;74.50
70986;DHT22;58645;43.068;25.610;2022-11-06T04:20:31;15.60;74.30
70986;DHT22;58645;43.068;25.610;2022-11-06T04:23:41;15.50;74.50
70986;DHT22;58645;43.068;25.610;2022-11-06T04:26:16;15.50;74.60
70986;DHT22;58645;43.068;25.610;2022-11-06T04:29:02;15.50;75.60
70986;DHT22;58645;43.068;25.610;2022-11-06T04:31:41;15.40;75.30
70986;DHT22;58645;43.068;25.610;2022-11-06T04:34:26;15.40;75.20
70986;DHT22;58645;43.068;25.610;2022-11-06T04:39:49;15.30;75.30
70986;DHT22;58645;43.068;25.610;2022-11-06T04:45:12;15.20;75.90
70986;DHT22;58645;43.068;25.610;2022-11-06T04:47:39;15.10;76.20
70986;DHT22;58645;43.068;25.610;2022-11-06T04:50:08;15.00;76.30
70986;DHT22;58645;43.068;25.610;2022-11-06T04:52:36;15.00;76.60
70986;DHT22;58645;43.068;25.610;2022-11-06T04:55:03;15.00;76.70
70986;DHT22;58645;43.068;25.610;2022-11-06T04:57:29;14.90;77.20
70986;DHT22;58645;43.068;25.610;2022-11-06T04:59:55;14.90;77.30
70986;DHT22;58645;43.068;25.610;2022-11-06T05:02:21;14.90;77.50
70986;DHT22;58645;43.068;25.610;2022-11-06T05:04:47;14.90;77.70
70986;DHT22;58645;43.068;25.610;2022-11-06T05:07:14;14.90;77.60
70986;DHT22;58645;43.068;25.610;2022-11-06T05:09:40;14.90;77.80
70986;DHT22;58645;43.068;25.610;2022-11-06T05:12:06;14.90;77.90
70986;DHT22;58645;43.068;25.610;2022-11-06T05:14:32;14.90;77.90
70986;DHT22;58645;43.068;25.610;2022-11-06T05:16:58;14.80;78.10
70986;DHT22;58645;43.068;25.610;2022-11-06T05:19:24;14.90;78.50
70986;DHT22;58645;43.068;25.610;2022-11-06T05:21:50;14.90;78.50
70986;DHT22;58645;43.068;25.610;2022-11-06T05:24:34;14.90;78.30
70986;DHT22;58645;43.068;25.610;2022-11-06T05:26:59;14.90;78.10
70986;DHT22;58645;43.068;25.610;2022-11-06T05:29:26;14.90;78.00
70986;DHT22;58645;43.068;25.610;2022-11-06T05:31:51;14.90;78.10
70986;DHT22;58645;43.068;25.610;2022-11-06T05:34:17;14.90;77.90
70986;DHT22;58645;43.068;25.610;2022-11-06T05:36:43;14.90;78.00
70986;DHT22;58645;43.068;25.610;2022-11-06T05:39:09;14.90;77.90
70986;DHT22;58645;43.068;25.610;2022-11-06T05:41:35;14.90;77.90
70986;DHT22;58645;43.068;25.610;2022-11-06T05:44:00;15.00;77.90
70986;DHT22;58645;43.068;25.610;2022-11-06T05:46:26;15.00;77.80
70986;DHT22;58645;43.068;25.610;2022-11-06T05:48:52;15.20;77.40
70986;DHT22;58645;43.068;25.610;2022-11-06T05:51:17;15.30;76.90
70986;DHT22;58645;43.068;25.610;2022-11-06T05:53:44;15.30;76.60
70986;DHT22;58645;43.068;25.610;2022-11-06T05:56:10;15.30;76.60
70986;DHT22;58645;43.068;25.610;2022-11-06T05:58:36;15.40;76.40
70986;DHT22;58645;43.068;25.610;2022-11-06T06:01:01;15.40;76.20
70986;DHT22;58645;43.068;25.610;2022-11-06T06:03:27;15.40;76.40
70986;DHT22;58645;43.068;25.610;2022-11-06T06:05:53;15.40;76.20
70986;DHT22;58645;43.068;25.610;2022-11-06T06:08:19;15.50;76.20
70986;DHT22;58645;43.068;25.610;2022-11-06T06:10:46;15.60;76.20
70986;DHT22;58645;43.068;25.610;2022-11-06T06:13:13;15.60;76.20
70986;DHT22;58645;43.068;25.610;2022-11-06T06:15:40;15.60;76.40
70986;DHT22;58645;43.068;25.610;2022-11-06T06:18:07;15.60;76.20
70986;DHT22;58645;43.068;25.610;2022-11-06T06:20:33;15.60;76.20
70986;DHT22;58645;43.068;25.610;2022-11-06T06:23:00;15.70;76.20
70986;DHT22;58645;43.068;25.610;2022-11-06T06:25:27;15.60;76.10
70986;DHT22;58645;43.068;25.610;2022-11-06T06:27:53;15.60;76.20
70986;DHT22;58645;43.068;25.610;2022-11-06T06:30:20;15.60;76.00
70986;DHT22;58645;43.068;25.610;2022-11-06T06:32:48;15.60;76.00
70986;DHT22;58645;43.068;25.610;2022-11-06T06:35:13;15.60;76.20
70986;DHT22;58645;43.068;25.610;2022-11-06T06:37:39;15.60;76.20
70986;DHT22;58645;43.068;25.610;2022-11-06T06:40:06;15.60;76.20
70986;DHT22;58645;43.068;25.610;2022-11-06T06:42:31;15.70;76.50
70986;DHT22;58645;43.068;25.610;2022-11-06T06:44:57;15.70;76.40
70986;DHT22;58645;43.068;25.610;2022-11-06T06:47:23;15.80;76.00
70986;DHT22;58645;43.068;25.610;2022-11-06T06:49:50;15.80;75.90
70986;DHT22;58645;43.068;25.610;2022-11-06T06:52:15;15.80;75.80
70986;DHT22;58645;43.068;25.610;2022-11-06T06:54:41;15.80;75.80
70986;DHT22;58645;43.068;25.610;2022-11-06T06:57:07;15.90;75.70
70986;DHT22;58645;43.068;25.610;2022-11-06T06:59:33;15.90;75.50
70986;DHT22;58645;43.068;25.610;2022-11-06T07:01:59;16.00;75.60
70986;DHT22;58645;43.068;25.610;2022-11-06T07:04:25;16.00;75.60
70986;DHT22;58645;43.068;25.610;2022-11-06T07:06:54;16.00;75.70
70986;DHT22;58645;43.068;25.610;2022-11-06T07:09:20;16.10;75.80
70986;DHT22;58645;43.068;25.610;2022-11-06T07:11:46;16.10;75.70
70986;DHT22;58645;43.068;25.610;2022-11-06T07:14:12;16.00;75.40
70986;DHT22;58645;43.068;25.610;2022-11-06T07:16:38;16.00;75.30
70986;DHT22;58645;43.068;25.610;2022-11-06T07:19:03;16.10;75.30
70986;DHT22;58645;43.068;25.610;2022-11-06T07:21:29;16.10;75.30
70986;DHT22;58645;43.068;25.610;2022-11-06T07:23:55;16.10;75.00
70986;DHT22;58645;43.068;25.610;2022-11-06T07:26:21;16.10;74.80
70986;DHT22;58645;43.068;25.610;2022-11-06T07:28:47;16.10;75.00
70986;DHT22;58645;43.068;25.610;2022-11-06T07:31:13;16.10;75.00
70986;DHT22;58645;43.068;25.610;2022-11-06T07:33:39;16.20;74.80
70986;DHT22;58645;43.068;25.610;2022-11-06T07:36:07;16.30;74.50
70986;DHT22;58645;43.068;25.610;2022-11-06T07:38:34;16.40;74.20
70986;DHT22;58645;43.068;25.610;2022-11-06T07:41:05;16.60;73.90
70986;DHT22;58645;43.068;25.610;2022-11-06T07:43:32;16.60;73.70
70986;DHT22;58645;43.068;25.610;2022-11-06T07:45:59;16.80;73.90
70986;DHT22;58645;43.068;25.610;2022-11-06T07:48:26;16.90;73.50
70986;DHT22;58645;43.068;25.610;2022-11-06T07:50:52;17.10;73.10
70986;DHT22;58645;43.068;25.610;2022-11-06T07:53:18;17.30;73.00
70986;DHT22;58645;43.068;25.610;2022-11-06T07:55:51;17.40;72.60
70986;DHT22;58645;43.068;25.610;2022-11-06T07:58:18;17.60;72.00
70986;DHT22;58645;43.068;25.610;2022-11-06T08:00:54;17.70;72.10
70986;DHT22;58645;43.068;25.610;2022-11-06T08:03:21;17.80;71.60
70986;DHT22;58645;43.068;25.610;2022-11-06T08:05:47;17.90;71.70
70986;DHT22;58645;43.068;25.610;2022-11-06T08:08:13;18.00;71.20
70986;DHT22;58645;43.068;25.610;2022-11-06T08:10:39;18.10;70.80
70986;DHT22;58645;43.068;25.610;2022-11-06T08:13:09;18.20;70.10
70986;DHT22;58645;43.068;25.610;2022-11-06T08:15:36;18.20;69.80
70986;DHT22;58645;43.068;25.610;2022-11-06T08:18:04;18.20;70.00
70986;DHT22;58645;43.068;25.610;2022-11-06T08:20:29;18.30;70.00
70986;DHT22;58645;43.068;25.610;2022-11-06T08:23:03;18.40;69.60
70986;DHT22;58645;43.068;25.610;2022-11-06T08:25:30;18.50;69.90
70986;DHT22;58645;43.068;25.610;2022-11-06T08:27:57;18.70;69.70
70986;DHT22;58645;43.068;25.610;2022-11-06T08:30:24;18.80;68.80
70986;DHT22;58645;43.068;25.610;2022-11-06T08:32:50;18.90;68.50
70986;DHT22;58645;43.068;25.610;2022-11-06T08:35:16;19.00;68.30
70986;DHT22;58645;43.068;25.610;2022-11-06T08:37:42;19.10;68.20
70986;DHT22;58645;43.068;25.610;2022-11-06T08:40:09;19.20;67.90
70986;DHT22;58645;43.068;25.610;2022-11-06T08:42:35;19.30;67.30
70986;DHT22;58645;43.068;25.610;2022-11-06T08:45:01;19.40;66.40
70986;DHT22;58645;43.068;25.610;2022-11-06T08:47:26;19.40;66.20
70986;DHT22;58645;43.068;25.610;2022-11-06T08:49:52;19.50;66.10
70986;DHT22;58645;43.068;25.610;2022-11-06T08:52:18;19.60;66.10
70986;DHT22;58645;43.068;25.610;2022-11-06T08:54:43;19.60;65.60
70986;DHT22;58645;43.068;25.610;2022-11-06T08:57:09;19.60;65.00
70986;DHT22;58645;43.068;25.610;2022-11-06T08:59:35;19.70;65.00
70986;DHT22;58645;43.068;25.610;2022-11-06T09:02:00;19.70;65.00
70986;DHT22;58645;43.068;25.610;2022-11-06T09:04:27;19.80;64.40
70986;DHT22;58645;43.068;25.610;2022-11-06T09:06:53;19.90;63.70
70986;DHT22;58645;43.068;25.610;2022-11-06T09:09:20;20.00;63.10
70986;DHT22;58645;43.068;25.610;2022-11-06T09:11:46;20.10;62.20
70986;DHT22;58645;43.068;25.610;2022-11-06T09:14:11;20.10;61.60
70986;DHT22;58645;43.068;25.610;2022-11-06T09:16:37;20.10;61.60
70986;DHT22;58645;43.068;25.610;2022-11-06T09:19:03;20.20;60.90
70986;DHT22;58645;43.068;25.610;2022-11-06T09:21:29;20.20;60.70
70986;DHT22;58645;43.068;25.610;2022-11-06T09:23:55;20.20;61.30
70986;DHT22;58645;43.068;25.610;2022-11-06T09:26:21;20.20;61.00
70986;DHT22;58645;43.068;25.610;2022-11-06T09:28:46;20.20;62.00
70986;DHT22;58645;43.068;25.610;2022-11-06T09:31:12;20.20;61.40
70986;DHT22;58645;43.068;25.610;2022-11-06T09:33:38;20.10;61.40
70986;DHT22;58645;43.068;25.610;2022-11-06T09:36:05;20.10;60.90
70986;DHT22;58645;43.068;25.610;2022-11-06T09:38:31;20.10;61.50
70986;DHT22;58645;43.068;25.610;2022-11-06T09:41:01;20.10;61.40
70986;DHT22;58645;43.068;25.610;2022-11-06T09:46:22;20.20;60.60
70986;DHT22;58645;43.068;25.610;2022-11-06T09:48:57;20.10;60.60
70986;DHT22;58645;43.068;25.610;2022-11-06T09:51:32;20.10;60.40
70986;DHT22;58645;43.068;25.610;2022-11-06T09:54:21;20.10;60.90
70986;DHT22;58645;43.068;25.610;2022-11-06T09:56:51;20.10;61.50
70986;DHT22;58645;43.068;25.610;2022-11-06T09:59:19;20.10;60.80
70986;DHT22;58645;43.068;25.610;2022-11-06T10:01:49;20.10;62.00
70986;DHT22;58645;43.068;25.610;2022-11-06T10:04:26;20.10;61.50
70986;DHT22;58645;43.068;25.610;2022-11-06T10:06:53;20.20;62.20
70986;DHT22;58645;43.068;25.610;2022-11-06T10:09:19;20.30;61.00
70986;DHT22;58645;43.068;25.610;2022-11-06T10:11:59;20.40;60.00
70986;DHT22;58645;43.068;25.610;2022-11-06T10:14:42;20.60;59.50
70986;DHT22;58645;43.068;25.610;2022-11-06T10:20:10;20.70;57.40
70986;DHT22;58645;43.068;25.610;2022-11-06T10:22:45;20.60;57.70
70986;DHT22;58645;43.068;25.610;2022-11-06T10:25:23;20.60;57.90
70986;DHT22;58645;43.068;25.610;2022-11-06T10:28:01;20.60;57.80
70986;DHT22;58645;43.068;25.610;2022-11-06T10:30:50;20.60;57.60
70986;DHT22;58645;43.068;25.610;2022-11-06T10:36:13;20.60;57.00
70986;DHT22;58645;43.068;25.610;2022-11-06T10:38:40;20.60;57.20
70986;DHT22;58645;43.068;25.610;2022-11-06T10:41:16;20.60;57.30
70986;DHT22;58645;43.068;25.610;2022-11-06T10:43:50;20.70;57.90
70986;DHT22;58645;43.068;25.610;2022-11-06T10:51:56;20.50;57.90
70986;DHT22;58645;43.068;25.610;2022-11-06T10:54:49;20.50;57.90
70986;DHT22;58645;43.068;25.610;2022-11-06T10:59:58;20.60;57.30
70986;DHT22;58645;43.068;25.610;2022-11-06T11:02:35;20.60;57.30
70986;DHT22;58645;43.068;25.610;2022-11-06T11:05:17;20.70;57.40
70986;DHT22;58645;43.068;25.610;2022-11-06T11:07:45;20.70;56.90
70986;DHT22;58645;43.068;25.610;2022-11-06T11:10:38;20.80;56.90
70986;DHT22;58645;43.068;25.610;2022-11-06T11:13:05;20.70;56.50
70986;DHT22;58645;43.068;25.610;2022-11-06T11:15:44;20.70;56.80
70986;DHT22;58645;43.068;25.610;2022-11-06T11:20:50;20.80;56.00
70986;DHT22;58645;43.068;25.610;2022-11-06T11:25:46;20.90;55.80
70986;DHT22;58645;43.068;25.610;2022-11-06T11:30:53;20.90;55.30
70986;DHT22;58645;43.068;25.610;2022-11-06T11:33:23;20.90;55.30
70986;DHT22;58645;43.068;25.610;2022-11-06T11:35:49;21.00;55.00
70986;DHT22;58645;43.068;25.610;2022-11-06T11:38:16;21.00;54.70
70986;DHT22;58645;43.068;25.610;2022-11-06T11:40:43;21.10;55.00
70986;DHT22;58645;43.068;25.610;2022-11-06T11:43:35;21.10;54.90
70986;DHT22;58645;43.068;25.610;2022-11-06T11:46:16;21.00;54.40
70986;DHT22;58645;43.068;25.610;2022-11-06T11:53:44;20.90;55.40
70986;DHT22;58645;43.068;25.610;2022-11-06T11:56:15;20.90;55.10
70986;DHT22;58645;43.068;25.610;2022-11-06T11:58:49;20.90;55.10
70986;DHT22;58645;43.068;25.610;2022-11-06T12:01:16;20.80;55.70
70986;DHT22;58645;43.068;25.610;2022-11-06T12:03:46;20.80;55.30
70986;DHT22;58645;43.068;25.610;2022-11-06T12:06:16;20.80;55.20
70986;DHT22;58645;43.068;25.610;2022-11-06T12:08:49;20.70;55.30
70986;DHT22;58645;43.068;25.610;2022-11-06T12:11:21;20.70;55.70
70986;DHT22;58645;43.068;25.610;2022-11-06T12:17:39;20.70;56.00
70986;DHT22;58645;43.068;25.610;2022-11-06T12:19:45;20.70;55.90
70986;DHT22;58645;43.068;25.610;2022-11-06T12:22:33;20.60;56.00
70986;DHT22;58645;43.068;25.610;2022-11-06T12:25:15;20.50;56.20
70986;DHT22;58645;43.068;25.610;2022-11-06T12:27:54;20.50;56.50
70986;DHT22;58645;43.068;25.610;2022-11-06T12:30:20;20.50;56.80
70986;DHT22;58645;43.068;25.610;2022-11-06T12:35:45;20.40;56.80
70986;DHT22;58645;43.068;25.610;2022-11-06T12:41:05;20.40;57.00
70986;DHT22;58645;43.068;25.610;2022-11-06T12:43:46;20.40;57.30
70986;DHT22;58645;43.068;25.610;2022-11-06T13:00:19;20.40;57.00
70986;DHT22;58645;43.068;25.610;2022-11-06T13:06:21;20.40;56.80
70986;DHT22;58645;43.068;25.610;2022-11-06T13:09:11;20.40;56.80
70986;DHT22;58645;43.068;25.610;2022-11-06T13:15:16;20.50;56.80
70986;DHT22;58645;43.068;25.610;2022-11-06T13:23:13;20.40;57.20
70986;DHT22;58645;43.068;25.610;2022-11-06T13:25:55;20.50;57.20
70986;DHT22;58645;43.068;25.610;2022-11-06T13:28:36;20.40;57.40
70986;DHT22;58645;43.068;25.610;2022-11-06T13:31:07;20.40;57.30
70986;DHT22;58645;43.068;25.610;2022-11-06T13:33:50;20.40;57.20
70986;DHT22;58645;43.068;25.610;2022-11-06T13:36:22;20.40;57.30
70986;DHT22;58645;43.068;25.610;2022-11-06T13:39:55;20.30;57.50
70986;DHT22;58645;43.068;25.610;2022-11-06T13:41:47;20.30;57.50
70986;DHT22;58645;43.068;25.610;2022-11-06T13:44:13;20.30;57.60
70986;DHT22;58645;43.068;25.610;2022-11-06T13:52:01;20.10;57.90
70986;DHT22;58645;43.068;25.610;2022-11-06T13:54:53;20.10;58.60
70986;DHT22;58645;43.068;25.610;2022-11-06T14:05:58;19.80;61.20
70986;DHT22;58645;43.068;25.610;2022-11-06T14:11:02;19.70;62.10
70986;DHT22;58645;43.068;25.610;2022-11-06T14:13:32;19.60;62.40
70986;DHT22;58645;43.068;25.610;2022-11-06T14:16:25;19.60;63.00
70986;DHT22;58645;43.068;25.610;2022-11-06T14:19:22;19.60;63.50
70986;DHT22;58645;43.068;25.610;2022-11-06T14:21:51;19.50;64.20
70986;DHT22;58645;43.068;25.610;2022-11-06T14:24:35;19.50;64.50
70986;DHT22;58645;43.068;25.610;2022-11-06T14:27:12;19.40;65.20
70986;DHT22;58645;43.068;25.610;2022-11-06T14:30:04;19.40;65.60
70986;DHT22;58645;43.068;25.610;2022-11-06T14:32:40;19.30;66.40
70986;DHT22;58645;43.068;25.610;2022-11-06T14:40:36;19.10;68.10
70986;DHT22;58645;43.068;25.610;2022-11-06T14:43:39;19.00;68.50
70986;DHT22;58645;43.068;25.610;2022-11-06T14:46:18;18.90;69.30
70986;DHT22;58645;43.068;25.610;2022-11-06T14:48:48;18.90;69.60
70986;DHT22;58645;43.068;25.610;2022-11-06T14:51:15;18.80;69.70
70986;DHT22;58645;43.068;25.610;2022-11-06T14:54:28;18.70;70.20
70986;DHT22;58645;43.068;25.610;2022-11-06T14:56:54;18.70;70.50
70986;DHT22;58645;43.068;25.610;2022-11-06T14:59:30;18.60;70.80
70986;DHT22;58645;43.068;25.610;2022-11-06T15:02:21;18.50;70.90
70986;DHT22;58645;43.068;25.610;2022-11-06T15:05:06;18.40;71.00
70986;DHT22;58645;43.068;25.610;2022-11-06T15:10:10;18.30;71.50
70986;DHT22;58645;43.068;25.610;2022-11-06T15:15:40;18.10;72.20
70986;DHT22;58645;43.068;25.610;2022-11-06T15:18:17;18.00;72.40
70986;DHT22;58645;43.068;25.610;2022-11-06T15:20:59;17.90;73.00
70986;DHT22;58645;43.068;25.610;2022-11-06T15:29:17;17.70;73.80
70986;DHT22;58645;43.068;25.610;2022-11-06T15:31:48;17.70;74.10
70986;DHT22;58645;43.068;25.610;2022-11-06T15:34:25;17.60;73.90
70986;DHT22;58645;43.068;25.610;2022-11-06T15:37:03;17.60;73.80
70986;DHT22;58645;43.068;25.610;2022-11-06T15:40:05;17.60;73.70
70986;DHT22;58645;43.068;25.610;2022-11-06T15:42:33;17.60;73.50
70986;DHT22;58645;43.068;25.610;2022-11-06T15:47:55;17.60;73.70
70986;DHT22;58645;43.068;25.610;2022-11-06T15:50:27;17.60;73.80
70986;DHT22;58645;43.068;25.610;2022-11-06T15:52:53;17.50;73.80
70986;DHT22;58645;43.068;25.610;2022-11-06T15:55:32;17.50;74.20
70986;DHT22;58645;43.068;25.610;2022-11-06T15:58:31;17.40;74.70
70986;DHT22;58645;43.068;25.610;2022-11-06T16:00:58;17.20;75.10
70986;DHT22;58645;43.068;25.610;2022-11-06T16:03:28;17.00;75.30
70986;DHT22;58645;43.068;25.610;2022-11-06T16:05:59;16.80;75.90
70986;DHT22;58645;43.068;25.610;2022-11-06T16:08:28;16.60;76.60
70986;DHT22;58645;43.068;25.610;2022-11-06T16:10:55;16.40;77.10
70986;DHT22;58645;43.068;25.610;2022-11-06T16:13:23;16.30;77.80
70986;DHT22;58645;43.068;25.610;2022-11-06T16:15:55;16.00;78.60
70986;DHT22;58645;43.068;25.610;2022-11-06T16:18:41;15.80;79.40
70986;DHT22;58645;43.068;25.610;2022-11-06T16:26:44;15.40;81.30
70986;DHT22;58645;43.068;25.610;2022-11-06T16:31:44;15.20;82.60
70986;DHT22;58645;43.068;25.610;2022-11-06T16:34:41;15.10;82.70
70986;DHT22;58645;43.068;25.610;2022-11-06T16:39:47;15.10;82.70
70986;DHT22;58645;43.068;25.610;2022-11-06T16:42:25;15.00;82.90
70986;DHT22;58645;43.068;25.610;2022-11-06T16:47:39;14.90;83.80
70986;DHT22;58645;43.068;25.610;2022-11-06T16:53:09;14.80;84.40
70986;DHT22;58645;43.068;25.610;2022-11-06T16:55:35;14.70;85.10
70986;DHT22;58645;43.068;25.610;2022-11-06T16:58:02;14.70;85.50
70986;DHT22;58645;43.068;25.610;2022-11-06T17:00:31;14.60;86.10
70986;DHT22;58645;43.068;25.610;2022-11-06T17:05:30;14.50;86.90
70986;DHT22;58645;43.068;25.610;2022-11-06T17:08:12;14.50;87.40
70986;DHT22;58645;43.068;25.610;2022-11-06T17:10:45;14.40;87.90
70986;DHT22;58645;43.068;25.610;2022-11-06T17:13:20;14.40;88.30
70986;DHT22;58645;43.068;25.610;2022-11-06T17:15:50;14.40;89.00
70986;DHT22;58645;43.068;25.610;2022-11-06T17:18:19;14.30;89.60
70986;DHT22;58645;43.068;25.610;2022-11-06T17:20:54;14.30;90.10
70986;DHT22;58645;43.068;25.610;2022-11-06T17:23:21;14.30;90.80
70986;DHT22;58645;43.068;25.610;2022-11-06T17:25:47;14.20;91.00
70986;DHT22;58645;43.068;25.610;2022-11-06T17:28:13;14.20;91.80
70986;DHT22;58645;43.068;25.610;2022-11-06T17:30:39;14.20;92.30
70986;DHT22;58645;43.068;25.610;2022-11-06T17:33:05;14.10;92.60
70986;DHT22;58645;43.068;25.610;2022-11-06T17:35:31;14.10;93.30
70986;DHT22;58645;43.068;25.610;2022-11-06T17:37:57;14.10;93.90
70986;DHT22;58645;43.068;25.610;2022-11-06T17:40:23;14.00;94.50
70986;DHT22;58645;43.068;25.610;2022-11-06T17:42:49;14.00;95.30
70986;DHT22;58645;43.068;25.610;2022-11-06T17:45:15;13.90;95.90
70986;DHT22;58645;43.068;25.610;2022-11-06T17:47:40;13.90;96.70
70986;DHT22;58645;43.068;25.610;2022-11-06T17:50:07;13.90;97.20
70986;DHT22;58645;43.068;25.610;2022-11-06T17:52:32;13.90;97.60
70986;DHT22;58645;43.068;25.610;2022-11-06T17:54:58;13.90;98.10
70986;DHT22;58645;43.068;25.610;2022-11-06T17:57:24;13.80;98.20
70986;DHT22;58645;43.068;25.610;2022-11-06T17:59:49;13.80;98.50
70986;DHT22;58645;43.068;25.610;2022-11-06T18:02:15;13.80;99.20
70986;DHT22;58645;43.068;25.610;2022-11-06T18:04:42;13.80;99.60
70986;DHT22;58645;43.068;25.610;2022-11-06T18:07:08;13.80;99.90
70986;DHT22;58645;43.068;25.610;2022-11-06T18:09:34;13.70;99.90
70986;DHT22;58645;43.068;25.610;2022-11-06T18:12:04;13.70;99.90